sensor_id;sensor_type;location;lat;lon;timestamp;temperature;humidity
60313;DHT22;46158;52.850;6.970;2022-12-18T00:01:03;12.10;72.80
60313;DHT22;46158;52.850;6.970;2022-12-18T00:03:32;12.00;72.70
60313;DHT22;46158;52.850;6.970;2022-12-18T00:05:58;12.00;72.60
60313;DHT22;46158;52.850;6.970;2022-12-18T00:08:23;12.00;72.60
60313;DHT22;46158;52.850;6.970;2022-12-18T00:10:49;12.00;72.50
60313;DHT22;46158;52.850;6.970;2022-12-18T00:13:14;12.00;72.50
60313;DHT22;46158;52.850;6.970;2022-12-18T00:15:40;12.00;72.40
60313;DHT22;46158;52.850;6.970;2022-12-18T00:18:06;12.00;72.40
60313;DHT22;46158;52.850;6.970;2022-12-18T00:20:35;11.90;72.30
60313;DHT22;46158;52.850;6.970;2022-12-18T00:23:01;11.90;72.20
60313;DHT22;46158;52.850;6.970;2022-12-18T00:25:26;11.90;72.20
60313;DHT22;46158;52.850;6.970;2022-12-18T00:27:52;11.90;72.10
60313;DHT22;46158;52.850;6.970;2022-12-18T00:30:17;11.90;72.10
60313;DHT22;46158;52.850;6.970;2022-12-18T00:32:43;11.90;72.10
60313;DHT22;46158;52.850;6.970;2022-12-18T00:35:09;11.90;72.00
60313;DHT22;46158;52.850;6.970;2022-12-18T00:37:34;11.80;72.00
60313;DHT22;46158;52.850;6.970;2022-12-18T00:40:01;11.80;71.90
60313;DHT22;46158;52.850;6.970;2022-12-18T00:42:26;11.80;71.90
60313;DHT22;46158;52.850;6.970;2022-12-18T00:45:11;11.80;71.90
60313;DHT22;46158;52.850;6.970;2022-12-18T00:47:36;11.80;71.80
60313;DHT22;46158;52.850;6.970;2022-12-18T00:50:02;11.80;71.80
60313;DHT22;46158;52.850;6.970;2022-12-18T00:52:28;11.70;71.60
60313;DHT22;46158;52.850;6.970;2022-12-18T00:54:53;11.70;71.70
60313;DHT22;46158;52.850;6.970;2022-12-18T00:57:19;11.70;71.60
60313;DHT22;46158;52.850;6.970;2022-12-18T00:59:44;11.70;71.60
60313;DHT22;46158;52.850;6.970;2022-12-18T01:02:10;11.70;71.60
60313;DHT22;46158;52.850;6.970;2022-12-18T01:04:38;11.70;71.60
60313;DHT22;46158;52.850;6.970;2022-12-18T01:07:04;11.70;71.60
60313;DHT22;46158;52.850;6.970;2022-12-18T01:09:29;11.70;71.60
60313;DHT22;46158;52.850;6.970;2022-12-18T01:11:55;11.60;72.20
60313;DHT22;46158;52.850;6.970;2022-12-18T01:14:20;11.60;71.50
60313;DHT22;46158;52.850;6.970;2022-12-18T01:16:46;11.60;71.50
60313;DHT22;46158;52.850;6.970;2022-12-18T01:19:11;11.60;71.50
60313;DHT22;46158;52.850;6.970;2022-12-18T01:21:37;11.60;71.40
60313;DHT22;46158;52.850;6.970;2022-12-18T01:24:03;11.60;71.40
60313;DHT22;46158;52.850;6.970;2022-12-18T01:26:29;11.60;71.30
60313;DHT22;46158;52.850;6.970;2022-12-18T01:28:55;11.60;71.30
60313;DHT22;46158;52.850;6.970;2022-12-18T01:31:25;11.60;71.30
60313;DHT22;46158;52.850;6.970;2022-12-18T01:33:51;11.50;71.10
60313;DHT22;46158;52.850;6.970;2022-12-18T01:36:19;11.60;71.10
60313;DHT22;46158;52.850;6.970;2022-12-18T01:38:45;11.60;71.00
60313;DHT22;46158;52.850;6.970;2022-12-18T01:41:11;11.50;70.90
60313;DHT22;46158;52.850;6.970;2022-12-18T01:46:15;11.50;70.90
60313;DHT22;46158;52.850;6.970;2022-12-18T01:48:41;11.50;70.80
60313;DHT22;46158;52.850;6.970;2022-12-18T01:51:07;11.50;70.80
60313;DHT22;46158;52.850;6.970;2022-12-18T01:53:33;11.50;70.80
60313;DHT22;46158;52.850;6.970;2022-12-18T01:55:59;11.40;70.80
60313;DHT22;46158;52.850;6.970;2022-12-18T01:58:30;11.50;70.80
60313;DHT22;46158;52.850;6.970;2022-12-18T02:00:57;11.40;70.70
60313;DHT22;46158;52.850;6.970;2022-12-18T02:03:23;11.40;70.70
60313;DHT22;46158;52.850;6.970;2022-12-18T02:08:21;11.40;70.60
60313;DHT22;46158;52.850;6.970;2022-12-18T02:10:56;11.40;70.60
60313;DHT22;46158;52.850;6.970;2022-12-18T02:18:26;11.30;70.40
60313;DHT22;46158;52.850;6.970;2022-12-18T02:21:01;11.30;70.40
60313;DHT22;46158;52.850;6.970;2022-12-18T02:23:38;11.30;70.30
60313;DHT22;46158;52.850;6.970;2022-12-18T02:28:55;11.20;70.30
60313;DHT22;46158;52.850;6.970;2022-12-18T02:31:24;11.20;70.30
60313;DHT22;46158;52.850;6.970;2022-12-18T02:33:52;11.20;70.30
60313;DHT22;46158;52.850;6.970;2022-12-18T02:36:18;11.20;70.40
60313;DHT22;46158;52.850;6.970;2022-12-18T02:38:45;11.20;70.40
60313;DHT22;46158;52.850;6.970;2022-12-18T02:41:11;11.20;70.40
60313;DHT22;46158;52.850;6.970;2022-12-18T02:43:38;11.20;70.50
60313;DHT22;46158;52.850;6.970;2022-12-18T02:48:48;11.10;70.50
60313;DHT22;46158;52.850;6.970;2022-12-18T02:51:22;11.10;70.50
60313;DHT22;46158;52.850;6.970;2022-12-18T02:53:53;11.10;70.50
60313;DHT22;46158;52.850;6.970;2022-12-18T02:56:26;11.10;70.40
60313;DHT22;46158;52.850;6.970;2022-12-18T03:01:30;11.10;70.40
60313;DHT22;46158;52.850;6.970;2022-12-18T03:04:01;11.10;70.30
60313;DHT22;46158;52.850;6.970;2022-12-18T03:06:35;11.10;71.00
60313;DHT22;46158;52.850;6.970;2022-12-18T03:09:10;11.00;70.20
60313;DHT22;46158;52.850;6.970;2022-12-18T03:11:39;11.00;70.20
60313;DHT22;46158;52.850;6.970;2022-12-18T03:14:24;11.00;70.20
60313;DHT22;46158;52.850;6.970;2022-12-18T03:16:52;11.00;70.30
60313;DHT22;46158;52.850;6.970;2022-12-18T03:19:20;11.00;70.40
60313;DHT22;46158;52.850;6.970;2022-12-18T03:21:47;10.90;70.30
60313;DHT22;46158;52.850;6.970;2022-12-18T03:24:14;10.90;70.30
60313;DHT22;46158;52.850;6.970;2022-12-18T03:26:41;10.90;70.30
60313;DHT22;46158;52.850;6.970;2022-12-18T03:29:20;10.90;70.40
60313;DHT22;46158;52.850;6.970;2022-12-18T03:31:49;10.90;70.40
60313;DHT22;46158;52.850;6.970;2022-12-18T03:34:17;10.90;70.50
60313;DHT22;46158;52.850;6.970;2022-12-18T03:36:43;10.90;70.50
60313;DHT22;46158;52.850;6.970;2022-12-18T03:39:09;10.90;70.50
60313;DHT22;46158;52.850;6.970;2022-12-18T03:41:44;10.90;70.50
60313;DHT22;46158;52.850;6.970;2022-12-18T03:47:01;10.80;70.50
60313;DHT22;46158;52.850;6.970;2022-12-18T03:49:35;10.80;70.40
60313;DHT22;46158;52.850;6.970;2022-12-18T03:52:05;10.80;70.50
60313;DHT22;46158;52.850;6.970;2022-12-18T03:54:31;10.80;70.50
60313;DHT22;46158;52.850;6.970;2022-12-18T03:57:04;10.80;70.50
60313;DHT22;46158;52.850;6.970;2022-12-18T03:59:30;10.80;70.40
60313;DHT22;46158;52.850;6.970;2022-12-18T04:01:57;10.80;70.40
60313;DHT22;46158;52.850;6.970;2022-12-18T04:04:24;10.80;70.40
60313;DHT22;46158;52.850;6.970;2022-12-18T04:06:50;10.80;70.40
60313;DHT22;46158;52.850;6.970;2022-12-18T04:09:17;10.80;70.40
60313;DHT22;46158;52.850;6.970;2022-12-18T04:11:43;10.80;70.40
60313;DHT22;46158;52.850;6.970;2022-12-18T04:14:09;10.80;70.50
60313;DHT22;46158;52.850;6.970;2022-12-18T04:16:35;10.80;70.40
60313;DHT22;46158;52.850;6.970;2022-12-18T04:19:00;10.70;70.40
60313;DHT22;46158;52.850;6.970;2022-12-18T04:21:26;10.80;70.40
60313;DHT22;46158;52.850;6.970;2022-12-18T04:23:52;10.80;70.40
60313;DHT22;46158;52.850;6.970;2022-12-18T04:26:17;10.70;70.40
60313;DHT22;46158;52.850;6.970;2022-12-18T04:28:43;10.70;70.30
60313;DHT22;46158;52.850;6.970;2022-12-18T04:31:08;10.70;70.30
60313;DHT22;46158;52.850;6.970;2022-12-18T04:33:34;10.70;70.30
60313;DHT22;46158;52.850;6.970;2022-12-18T04:35:59;10.70;70.30
60313;DHT22;46158;52.850;6.970;2022-12-18T04:38:25;10.70;70.30
60313;DHT22;46158;52.850;6.970;2022-12-18T04:40:51;10.70;70.30
60313;DHT22;46158;52.850;6.970;2022-12-18T04:43:16;10.70;70.30
60313;DHT22;46158;52.850;6.970;2022-12-18T04:45:42;10.70;70.30
60313;DHT22;46158;52.850;6.970;2022-12-18T04:48:07;10.70;71.00
60313;DHT22;46158;52.850;6.970;2022-12-18T04:50:33;10.70;70.30
60313;DHT22;46158;52.850;6.970;2022-12-18T04:52:59;10.70;70.30
60313;DHT22;46158;52.850;6.970;2022-12-18T04:55:24;10.70;70.30
60313;DHT22;46158;52.850;6.970;2022-12-18T04:57:50;10.70;70.30
60313;DHT22;46158;52.850;6.970;2022-12-18T05:00:16;10.70;70.30
60313;DHT22;46158;52.850;6.970;2022-12-18T05:02:41;10.70;70.30
60313;DHT22;46158;52.850;6.970;2022-12-18T05:05:07;10.70;70.30
60313;DHT22;46158;52.850;6.970;2022-12-18T05:07:33;10.70;70.30
60313;DHT22;46158;52.850;6.970;2022-12-18T05:09:58;10.70;70.20
60313;DHT22;46158;52.850;6.970;2022-12-18T05:12:24;10.70;70.20
60313;DHT22;46158;52.850;6.970;2022-12-18T05:14:49;10.70;70.10
60313;DHT22;46158;52.850;6.970;2022-12-18T05:17:15;10.70;70.10
60313;DHT22;46158;52.850;6.970;2022-12-18T05:19:41;10.70;70.50
60313;DHT22;46158;52.850;6.970;2022-12-18T05:22:06;10.70;70.80
60313;DHT22;46158;52.850;6.970;2022-12-18T05:24:32;10.70;70.80
60313;DHT22;46158;52.850;6.970;2022-12-18T05:26:58;10.70;70.60
60313;DHT22;46158;52.850;6.970;2022-12-18T05:29:23;10.80;70.70
60313;DHT22;46158;52.850;6.970;2022-12-18T05:31:49;10.80;70.60
60313;DHT22;46158;52.850;6.970;2022-12-18T05:34:14;10.70;70.40
60313;DHT22;46158;52.850;6.970;2022-12-18T05:36:40;10.70;70.40
60313;DHT22;46158;52.850;6.970;2022-12-18T05:39:06;10.70;70.40
60313;DHT22;46158;52.850;6.970;2022-12-18T05:41:32;10.70;70.30
60313;DHT22;46158;52.850;6.970;2022-12-18T05:43:57;10.70;70.30
60313;DHT22;46158;52.850;6.970;2022-12-18T05:46:23;10.70;70.20
60313;DHT22;46158;52.850;6.970;2022-12-18T05:48:49;10.70;70.20
60313;DHT22;46158;52.850;6.970;2022-12-18T05:51:16;10.70;70.30
60313;DHT22;46158;52.850;6.970;2022-12-18T05:53:43;10.70;70.20
60313;DHT22;46158;52.850;6.970;2022-12-18T05:56:10;10.70;70.50
60313;DHT22;46158;52.850;6.970;2022-12-18T05:58:36;10.80;70.90
60313;DHT22;46158;52.850;6.970;2022-12-18T06:01:06;10.80;70.80
60313;DHT22;46158;52.850;6.970;2022-12-18T06:03:32;10.80;71.00
60313;DHT22;46158;52.850;6.970;2022-12-18T06:05:58;10.80;71.00
60313;DHT22;46158;52.850;6.970;2022-12-18T06:08:23;10.80;71.10
60313;DHT22;46158;52.850;6.970;2022-12-18T06:10:50;10.80;71.10
60313;DHT22;46158;52.850;6.970;2022-12-18T06:13:16;10.80;71.30
60313;DHT22;46158;52.850;6.970;2022-12-18T06:15:42;10.90;71.50
60313;DHT22;46158;52.850;6.970;2022-12-18T06:18:07;10.80;71.40
60313;DHT22;46158;52.850;6.970;2022-12-18T06:20:33;10.90;71.60
60313;DHT22;46158;52.850;6.970;2022-12-18T06:22:58;10.90;71.60
60313;DHT22;46158;52.850;6.970;2022-12-18T06:25:24;10.90;72.40
60313;DHT22;46158;52.850;6.970;2022-12-18T06:27:50;10.90;71.80
60313;DHT22;46158;52.850;6.970;2022-12-18T06:30:16;10.90;71.70
60313;DHT22;46158;52.850;6.970;2022-12-18T06:32:41;10.90;71.90
60313;DHT22;46158;52.850;6.970;2022-12-18T06:35:07;11.00;71.90
60313;DHT22;46158;52.850;6.970;2022-12-18T06:37:33;11.00;71.90
60313;DHT22;46158;52.850;6.970;2022-12-18T06:39:58;11.00;72.00
60313;DHT22;46158;52.850;6.970;2022-12-18T06:42:24;11.00;72.00
60313;DHT22;46158;52.850;6.970;2022-12-18T06:44:50;11.00;72.00
60313;DHT22;46158;52.850;6.970;2022-12-18T06:47:15;11.00;72.10
60313;DHT22;46158;52.850;6.970;2022-12-18T06:49:41;11.10;72.20
60313;DHT22;46158;52.850;6.970;2022-12-18T06:52:07;11.00;72.10
60313;DHT22;46158;52.850;6.970;2022-12-18T06:54:32;11.10;72.30
60313;DHT22;46158;52.850;6.970;2022-12-18T06:56:58;11.10;72.20
60313;DHT22;46158;52.850;6.970;2022-12-18T06:59:23;11.10;72.20
60313;DHT22;46158;52.850;6.970;2022-12-18T07:01:49;11.10;72.30
60313;DHT22;46158;52.850;6.970;2022-12-18T07:04:14;11.10;72.20
60313;DHT22;46158;52.850;6.970;2022-12-18T07:06:40;11.10;72.30
60313;DHT22;46158;52.850;6.970;2022-12-18T07:09:06;11.10;72.20
60313;DHT22;46158;52.850;6.970;2022-12-18T07:11:32;11.20;72.40
60313;DHT22;46158;52.850;6.970;2022-12-18T07:13:57;11.20;72.40
60313;DHT22;46158;52.850;6.970;2022-12-18T07:16:27;11.20;72.30
60313;DHT22;46158;52.850;6.970;2022-12-18T07:18:55;11.20;72.40
60313;DHT22;46158;52.850;6.970;2022-12-18T07:21:22;11.20;72.40
60313;DHT22;46158;52.850;6.970;2022-12-18T07:23:48;11.20;72.50
60313;DHT22;46158;52.850;6.970;2022-12-18T07:26:14;11.20;72.50
60313;DHT22;46158;52.850;6.970;2022-12-18T07:28:40;11.20;72.50
60313;DHT22;46158;52.850;6.970;2022-12-18T07:31:07;11.20;72.50
60313;DHT22;46158;52.850;6.970;2022-12-18T07:33:33;11.30;72.50
60313;DHT22;46158;52.850;6.970;2022-12-18T07:36:02;11.30;72.50
60313;DHT22;46158;52.850;6.970;2022-12-18T07:38:29;11.30;72.60
60313;DHT22;46158;52.850;6.970;2022-12-18T07:40:54;11.30;72.60
60313;DHT22;46158;52.850;6.970;2022-12-18T07:43:20;11.30;72.60
60313;DHT22;46158;52.850;6.970;2022-12-18T07:45:48;11.30;72.80
60313;DHT22;46158;52.850;6.970;2022-12-18T07:48:14;11.30;73.00
60313;DHT22;46158;52.850;6.970;2022-12-18T07:50:39;11.30;73.10
60313;DHT22;46158;52.850;6.970;2022-12-18T07:53:05;11.30;73.20
60313;DHT22;46158;52.850;6.970;2022-12-18T07:55:31;11.30;73.20
60313;DHT22;46158;52.850;6.970;2022-12-18T07:57:57;11.30;73.40
60313;DHT22;46158;52.850;6.970;2022-12-18T08:00:22;11.30;73.40
60313;DHT22;46158;52.850;6.970;2022-12-18T08:02:48;11.30;73.50
60313;DHT22;46158;52.850;6.970;2022-12-18T08:05:13;11.30;73.50
60313;DHT22;46158;52.850;6.970;2022-12-18T08:07:39;11.30;73.40
60313;DHT22;46158;52.850;6.970;2022-12-18T08:10:05;11.40;73.30
60313;DHT22;46158;52.850;6.970;2022-12-18T08:12:31;11.40;73.10
60313;DHT22;46158;52.850;6.970;2022-12-18T08:14:57;11.40;72.90
60313;DHT22;46158;52.850;6.970;2022-12-18T08:17:23;11.40;72.80
60313;DHT22;46158;52.850;6.970;2022-12-18T08:19:48;11.40;73.00
60313;DHT22;46158;52.850;6.970;2022-12-18T08:22:14;11.40;73.20
60313;DHT22;46158;52.850;6.970;2022-12-18T08:24:43;11.40;73.00
60313;DHT22;46158;52.850;6.970;2022-12-18T08:27:08;11.40;72.00
60313;DHT22;46158;52.850;6.970;2022-12-18T08:29:34;11.40;72.80
60313;DHT22;46158;52.850;6.970;2022-12-18T08:31:59;11.40;73.20
60313;DHT22;46158;52.850;6.970;2022-12-18T08:34:25;11.40;73.30
60313;DHT22;46158;52.850;6.970;2022-12-18T08:36:50;11.40;73.30
60313;DHT22;46158;52.850;6.970;2022-12-18T08:39:16;11.40;73.30
60313;DHT22;46158;52.850;6.970;2022-12-18T08:41:42;11.40;73.30
60313;DHT22;46158;52.850;6.970;2022-12-18T08:44:10;11.50;73.40
60313;DHT22;46158;52.850;6.970;2022-12-18T08:46:54;11.50;73.30
60313;DHT22;46158;52.850;6.970;2022-12-18T08:49:22;11.50;73.30
60313;DHT22;46158;52.850;6.970;2022-12-18T08:51:48;11.50;73.30
60313;DHT22;46158;52.850;6.970;2022-12-18T08:54:13;11.50;73.30
60313;DHT22;46158;52.850;6.970;2022-12-18T08:56:39;11.60;73.40
60313;DHT22;46158;52.850;6.970;2022-12-18T08:59:05;11.60;73.30
60313;DHT22;46158;52.850;6.970;2022-12-18T09:01:30;11.60;73.30
60313;DHT22;46158;52.850;6.970;2022-12-18T09:03:56;11.60;73.20
60313;DHT22;46158;52.850;6.970;2022-12-18T09:06:22;11.60;73.10
60313;DHT22;46158;52.850;6.970;2022-12-18T09:08:48;11.60;73.10
60313;DHT22;46158;52.850;6.970;2022-12-18T09:11:24;11.60;73.20
60313;DHT22;46158;52.850;6.970;2022-12-18T09:13:50;11.60;73.20
60313;DHT22;46158;52.850;6.970;2022-12-18T09:16:16;11.60;73.20
60313;DHT22;46158;52.850;6.970;2022-12-18T09:18:42;11.70;73.30
60313;DHT22;46158;52.850;6.970;2022-12-18T09:21:17;11.70;73.30
60313;DHT22;46158;52.850;6.970;2022-12-18T09:23:43;11.70;73.30
60313;DHT22;46158;52.850;6.970;2022-12-18T09:26:09;11.70;73.30
60313;DHT22;46158;52.850;6.970;2022-12-18T09:28:35;11.80;73.40
60313;DHT22;46158;52.850;6.970;2022-12-18T09:31:06;11.70;73.40
60313;DHT22;46158;52.850;6.970;2022-12-18T09:33:33;11.70;73.40
60313;DHT22;46158;52.850;6.970;2022-12-18T09:36:00;11.80;73.50
60313;DHT22;46158;52.850;6.970;2022-12-18T09:38:26;11.80;73.50
60313;DHT22;46158;52.850;6.970;2022-12-18T09:40:52;11.80;73.60
60313;DHT22;46158;52.850;6.970;2022-12-18T09:43:29;11.80;73.70
60313;DHT22;46158;52.850;6.970;2022-12-18T09:45:58;11.90;73.80
60313;DHT22;46158;52.850;6.970;2022-12-18T09:48:26;11.90;73.80
60313;DHT22;46158;52.850;6.970;2022-12-18T09:50:54;11.90;73.80
60313;DHT22;46158;52.850;6.970;2022-12-18T09:53:22;11.90;73.80
60313;DHT22;46158;52.850;6.970;2022-12-18T09:55:50;11.90;73.80
60313;DHT22;46158;52.850;6.970;2022-12-18T09:58:36;11.90;73.80
60313;DHT22;46158;52.850;6.970;2022-12-18T10:01:09;12.00;73.80
60313;DHT22;46158;52.850;6.970;2022-12-18T10:03:35;12.00;73.70
60313;DHT22;46158;52.850;6.970;2022-12-18T10:08:33;12.10;73.70
60313;DHT22;46158;52.850;6.970;2022-12-18T10:16:22;12.10;73.70
60313;DHT22;46158;52.850;6.970;2022-12-18T10:21:32;12.20;73.70
60313;DHT22;46158;52.850;6.970;2022-12-18T10:26:25;12.20;73.80
60313;DHT22;46158;52.850;6.970;2022-12-18T10:28:50;12.20;73.90
60313;DHT22;46158;52.850;6.970;2022-12-18T10:31:18;12.30;73.90
60313;DHT22;46158;52.850;6.970;2022-12-18T10:33:44;12.30;73.90
60313;DHT22;46158;52.850;6.970;2022-12-18T10:36:09;12.20;73.80
60313;DHT22;46158;52.850;6.970;2022-12-18T10:38:35;12.20;73.70
60313;DHT22;46158;52.850;6.970;2022-12-18T10:41:05;12.20;73.70
60313;DHT22;46158;52.850;6.970;2022-12-18T10:46:00;12.30;73.50
60313;DHT22;46158;52.850;6.970;2022-12-18T10:48:27;12.30;73.50
60313;DHT22;46158;52.850;6.970;2022-12-18T10:50:52;12.30;73.40
60313;DHT22;46158;52.850;6.970;2022-12-18T10:53:22;12.30;73.30
60313;DHT22;46158;52.850;6.970;2022-12-18T10:55:49;12.30;73.30
60313;DHT22;46158;52.850;6.970;2022-12-18T11:01:07;12.30;73.10
60313;DHT22;46158;52.850;6.970;2022-12-18T11:03:41;12.30;73.10
60313;DHT22;46158;52.850;6.970;2022-12-18T11:06:10;12.40;73.20
60313;DHT22;46158;52.850;6.970;2022-12-18T11:08:35;12.40;73.00
60313;DHT22;46158;52.850;6.970;2022-12-18T11:11:02;12.40;72.90
60313;DHT22;46158;52.850;6.970;2022-12-18T11:13:29;12.40;72.80
60313;DHT22;46158;52.850;6.970;2022-12-18T11:15:55;12.40;72.80
60313;DHT22;46158;52.850;6.970;2022-12-18T11:18:26;12.40;72.70
60313;DHT22;46158;52.850;6.970;2022-12-18T11:20:56;12.40;72.50
60313;DHT22;46158;52.850;6.970;2022-12-18T11:23:22;12.40;72.40
60313;DHT22;46158;52.850;6.970;2022-12-18T11:25:53;12.40;72.30
60313;DHT22;46158;52.850;6.970;2022-12-18T11:28:37;12.40;72.20
60313;DHT22;46158;52.850;6.970;2022-12-18T11:31:20;12.40;72.10
60313;DHT22;46158;52.850;6.970;2022-12-18T11:36:33;12.40;71.90
60313;DHT22;46158;52.850;6.970;2022-12-18T11:39:00;12.40;71.90
60313;DHT22;46158;52.850;6.970;2022-12-18T11:41:32;12.40;71.80
60313;DHT22;46158;52.850;6.970;2022-12-18T11:44:22;12.40;71.70
60313;DHT22;46158;52.850;6.970;2022-12-18T11:46:51;12.40;71.60
60313;DHT22;46158;52.850;6.970;2022-12-18T11:54:21;12.30;71.30
60313;DHT22;46158;52.850;6.970;2022-12-18T12:00:01;12.30;71.20
60313;DHT22;46158;52.850;6.970;2022-12-18T12:04:56;12.30;71.10
60313;DHT22;46158;52.850;6.970;2022-12-18T12:17:52;12.20;70.70
60313;DHT22;46158;52.850;6.970;2022-12-18T12:20:26;12.20;70.60
60313;DHT22;46158;52.850;6.970;2022-12-18T12:22:55;12.20;70.60
60313;DHT22;46158;52.850;6.970;2022-12-18T12:33:52;12.20;70.60
60313;DHT22;46158;52.850;6.970;2022-12-18T12:36:34;12.20;70.50
60313;DHT22;46158;52.850;6.970;2022-12-18T12:39:07;12.20;70.40
60313;DHT22;46158;52.850;6.970;2022-12-18T12:41:33;12.20;70.20
60313;DHT22;46158;52.850;6.970;2022-12-18T12:44:20;12.20;70.10
60313;DHT22;46158;52.850;6.970;2022-12-18T12:46:47;12.20;70.00
60313;DHT22;46158;52.850;6.970;2022-12-18T12:49:15;12.10;69.90
60313;DHT22;46158;52.850;6.970;2022-12-18T12:51:43;12.10;69.90
60313;DHT22;46158;52.850;6.970;2022-12-18T12:54:15;12.10;69.70
60313;DHT22;46158;52.850;6.970;2022-12-18T12:56:52;12.10;69.70
60313;DHT22;46158;52.850;6.970;2022-12-18T13:01:54;12.00;69.60
60313;DHT22;46158;52.850;6.970;2022-12-18T13:04:35;12.00;70.00
60313;DHT22;46158;52.850;6.970;2022-12-18T13:07:10;12.00;70.00
60313;DHT22;46158;52.850;6.970;2022-12-18T13:12:23;12.00;69.90
60313;DHT22;46158;52.850;6.970;2022-12-18T13:18:26;12.00;70.00
60313;DHT22;46158;52.850;6.970;2022-12-18T13:25:50;11.90;70.20
60313;DHT22;46158;52.850;6.970;2022-12-18T13:28:17;11.90;70.80
60313;DHT22;46158;52.850;6.970;2022-12-18T13:40:53;11.90;69.80
60313;DHT22;46158;52.850;6.970;2022-12-18T13:48:14;11.90;69.50
60313;DHT22;46158;52.850;6.970;2022-12-18T13:50:40;11.90;69.50
60313;DHT22;46158;52.850;6.970;2022-12-18T13:53:06;11.90;69.50
60313;DHT22;46158;52.850;6.970;2022-12-18T13:55:32;11.90;69.40
60313;DHT22;46158;52.850;6.970;2022-12-18T13:58:04;11.90;69.40
60313;DHT22;46158;52.850;6.970;2022-12-18T14:00:31;11.80;69.20
60313;DHT22;46158;52.850;6.970;2022-12-18T14:02:57;11.80;69.00
60313;DHT22;46158;52.850;6.970;2022-12-18T14:05:25;11.80;69.00
60313;DHT22;46158;52.850;6.970;2022-12-18T14:07:51;11.80;69.50
60313;DHT22;46158;52.850;6.970;2022-12-18T14:10:17;11.70;69.60
60313;DHT22;46158;52.850;6.970;2022-12-18T14:12:50;11.80;69.90
60313;DHT22;46158;52.850;6.970;2022-12-18T14:17:47;11.80;70.10
60313;DHT22;46158;52.850;6.970;2022-12-18T14:20:14;11.80;70.10
60313;DHT22;46158;52.850;6.970;2022-12-18T14:22:44;11.80;70.20
60313;DHT22;46158;52.850;6.970;2022-12-18T14:25:16;11.80;70.20
60313;DHT22;46158;52.850;6.970;2022-12-18T14:27:52;11.80;70.20
60313;DHT22;46158;52.850;6.970;2022-12-18T14:33:12;11.90;70.20
60313;DHT22;46158;52.850;6.970;2022-12-18T14:35:42;11.90;70.20
60313;DHT22;46158;52.850;6.970;2022-12-18T14:38:17;11.90;70.30
60313;DHT22;46158;52.850;6.970;2022-12-18T14:40:43;11.90;70.30
60313;DHT22;46158;52.850;6.970;2022-12-18T14:43:12;11.90;70.30
60313;DHT22;46158;52.850;6.970;2022-12-18T14:45:39;11.90;70.30
60313;DHT22;46158;52.850;6.970;2022-12-18T14:50:35;11.90;70.50
60313;DHT22;46158;52.850;6.970;2022-12-18T14:53:00;11.90;70.70
60313;DHT22;46158;52.850;6.970;2022-12-18T14:55:26;11.90;70.70
60313;DHT22;46158;52.850;6.970;2022-12-18T14:57:52;11.90;70.80
60313;DHT22;46158;52.850;6.970;2022-12-18T15:00:20;11.90;71.00
60313;DHT22;46158;52.850;6.970;2022-12-18T15:02:55;11.90;71.10
60313;DHT22;46158;52.850;6.970;2022-12-18T15:05:28;11.90;71.30
60313;DHT22;46158;52.850;6.970;2022-12-18T15:07:55;12.00;71.40
60313;DHT22;46158;52.850;6.970;2022-12-18T15:17:59;12.10;71.60
60313;DHT22;46158;52.850;6.970;2022-12-18T15:20:30;12.10;71.60
60313;DHT22;46158;52.850;6.970;2022-12-18T15:22:56;12.10;71.60
60313;DHT22;46158;52.850;6.970;2022-12-18T15:25:32;12.20;71.80
60313;DHT22;46158;52.850;6.970;2022-12-18T15:27:59;12.20;71.80
60313;DHT22;46158;52.850;6.970;2022-12-18T15:30:25;12.20;71.80
60313;DHT22;46158;52.850;6.970;2022-12-18T15:32:51;12.20;71.80
60313;DHT22;46158;52.850;6.970;2022-12-18T15:35:24;12.20;71.90
60313;DHT22;46158;52.850;6.970;2022-12-18T15:37:50;12.30;71.90
60313;DHT22;46158;52.850;6.970;2022-12-18T15:40:20;12.30;71.90
60313;DHT22;46158;52.850;6.970;2022-12-18T15:42:46;12.30;72.00
60313;DHT22;46158;52.850;6.970;2022-12-18T15:45:31;12.30;72.00
60313;DHT22;46158;52.850;6.970;2022-12-18T15:47:57;12.30;72.10
60313;DHT22;46158;52.850;6.970;2022-12-18T15:50:22;12.30;72.10
60313;DHT22;46158;52.850;6.970;2022-12-18T15:52:49;12.40;72.20
60313;DHT22;46158;52.850;6.970;2022-12-18T15:55:16;12.40;72.20
60313;DHT22;46158;52.850;6.970;2022-12-18T15:58:00;12.40;72.30
60313;DHT22;46158;52.850;6.970;2022-12-18T16:00:26;12.40;72.30
60313;DHT22;46158;52.850;6.970;2022-12-18T16:02:52;12.40;72.40
60313;DHT22;46158;52.850;6.970;2022-12-18T16:05:18;12.50;71.40
60313;DHT22;46158;52.850;6.970;2022-12-18T16:07:47;12.40;72.20
60313;DHT22;46158;52.850;6.970;2022-12-18T16:10:13;12.40;72.30
60313;DHT22;46158;52.850;6.970;2022-12-18T16:12:39;12.40;72.40
60313;DHT22;46158;52.850;6.970;2022-12-18T16:15:05;12.40;72.40
60313;DHT22;46158;52.850;6.970;2022-12-18T16:17:31;12.40;72.50
60313;DHT22;46158;52.850;6.970;2022-12-18T16:19:57;12.40;72.40
60313;DHT22;46158;52.850;6.970;2022-12-18T16:22:26;12.40;72.40
60313;DHT22;46158;52.850;6.970;2022-12-18T16:24:52;12.40;72.30
60313;DHT22;46158;52.850;6.970;2022-12-18T16:27:18;12.40;72.20
60313;DHT22;46158;52.850;6.970;2022-12-18T16:29:44;12.40;72.10
60313;DHT22;46158;52.850;6.970;2022-12-18T16:32:17;12.40;72.00
60313;DHT22;46158;52.850;6.970;2022-12-18T16:34:43;12.40;72.00
60313;DHT22;46158;52.850;6.970;2022-12-18T16:37:10;12.40;71.90
60313;DHT22;46158;52.850;6.970;2022-12-18T16:39:36;12.40;71.80
60313;DHT22;46158;52.850;6.970;2022-12-18T16:42:03;12.40;71.70
60313;DHT22;46158;52.850;6.970;2022-12-18T16:44:30;12.40;71.80
60313;DHT22;46158;52.850;6.970;2022-12-18T16:46:55;12.40;71.90
60313;DHT22;46158;52.850;6.970;2022-12-18T16:49:27;12.40;71.90
60313;DHT22;46158;52.850;6.970;2022-12-18T16:51:53;12.40;71.90
60313;DHT22;46158;52.850;6.970;2022-12-18T16:54:19;12.40;71.80
60313;DHT22;46158;52.850;6.970;2022-12-18T16:56:45;12.40;71.90
60313;DHT22;46158;52.850;6.970;2022-12-18T16:59:14;12.40;71.90
60313;DHT22;46158;52.850;6.970;2022-12-18T17:01:39;12.40;72.70
60313;DHT22;46158;52.850;6.970;2022-12-18T17:04:06;12.40;72.10
60313;DHT22;46158;52.850;6.970;2022-12-18T17:06:32;12.40;72.20
60313;DHT22;46158;52.850;6.970;2022-12-18T17:08:59;12.30;72.20
60313;DHT22;46158;52.850;6.970;2022-12-18T17:11:26;12.40;72.30
60313;DHT22;46158;52.850;6.970;2022-12-18T17:13:52;12.40;72.30
60313;DHT22;46158;52.850;6.970;2022-12-18T17:16:18;12.40;72.40
60313;DHT22;46158;52.850;6.970;2022-12-18T17:18:44;12.50;72.50
60313;DHT22;46158;52.850;6.970;2022-12-18T17:21:10;12.40;72.30
60313;DHT22;46158;52.850;6.970;2022-12-18T17:23:36;12.50;72.40
60313;DHT22;46158;52.850;6.970;2022-12-18T17:26:02;12.50;72.40
60313;DHT22;46158;52.850;6.970;2022-12-18T17:28:29;12.50;72.30